Flight Track Log - Related Links

Times and Time Zones

All times are in EDT time to prevent confusion due to time zone crossing. See the N72235 flight status page for this flight to view local times or setup timezone preferences in your user account.

Time Position Orientation Groundspeed Altitude Reporting Facility
EDT Latitude Longitude Course Direction KTS MPH feet Rate Location/Type
Fri 07:06:53 PM 37.6158 -97.4764 237° Southwest 145 167 3,300  Level Kansas City Center
Fri 07:07:20 PM 37.6189 -97.4956 281° West 171 197 3,400 700 Climbing Kansas City Center
Fri 07:07:53 PM 37.6447 -97.5144 330° Northwest 169 194 4,000 689 Climbing Kansas City Center
Fri 07:08:21 PM 37.6603 -97.5122 North 168 193 4,100 98 Climbing Kansas City Center
Fri 07:08:54 PM 37.6919 -97.5019 14° North 183 211 4,100 -100 Level Kansas City Center
Fri 07:09:21 PM 37.7189 -97.4925 15° North 177 204 4,000 -100 Descending Kansas City Center
Fri 07:09:54 PM 37.7425 -97.4833 17° North 187 215 4,000  Level Kansas City Center
Fri 07:10:24 PM 37.7683 -97.4750 14° North 182 209 4,000  Level Kansas City Center
Fri 07:10:55 PM 37.7914 -97.4681 13° North 183 211 4,000  Level Kansas City Center
Fri 07:11:00 PM 37.8916 -97.3362 15° North  Level FlightAware Approximate
Fri 07:11:25 PM 37.8169 -97.4600 14° North 182 209 4,000  Level Kansas City Center
Fri 07:11:55 PM 37.8444 -97.4519 13° North 178 205 4,000  Level Kansas City Center
Fri 07:12:29 PM 37.8644 -97.4431 19° North 180 207 4,000  Level Kansas City Center
Fri 07:12:50 PM 37.8831 -97.4378 13° North 178 205 4,000  Level Kansas City Center
Fri 07:13:30 PM 37.9114 -97.4283 15° North 178 205 4,000  Level Kansas City Center
Fri 07:13:51 PM 37.9336 -97.4169 22° Northeast 179 206 4,000  Level Kansas City Center
Fri 07:14:31 PM 37.9572 -97.4044 23° Northeast 178 205 4,000  Level Kansas City Center
Fri 07:14:46 PM 37.9739 -97.3972 19° North 180 207 4,000  Level Kansas City Center
Fri 07:15:34 PM 38.0153 -97.3903 North 177 204 4,000 55 Level Kansas City Center
Fri 07:16:35 PM 38.0647 -97.3850 North 179 206 4,100  Climbing Kansas City Center
Fri 07:17:35 PM 38.1139 -97.3753 North 179 206 4,000 -48 Descending Kansas City Center
Fri 07:18:40 PM 38.1625 -97.3669 North 177 204 4,000 -240 Level Kansas City Center
Fri 07:19:40 PM 38.1881 -97.3308 48° Northeast 168 193 3,500 -397 Descending Kansas City Center
Fri 07:20:41 PM 38.1847 -97.2819 95° East 162 186 3,200 -97 Descending Kansas City Center
Fri 07:21:44 PM 38.1542 -97.2767 172° South 113 130 3,300 -293 Climbing Kansas City Center
Fri 07:22:44 PM 38.1158 -97.2772 181° South 114 131 2,600 -639 Descending Kansas City Center
Fri 07:23:46 PM 38.0856 -97.2803 185° South 113 130 2,000 -432 Descending Kansas City Center
Fri 07:24:49 PM 38.0608 -97.2864 191° South 109 125 1,700 -286 Descending Kansas City Center

Login

Don't have an account? Register now (free) for customized features, flight alerts, and more!